Terminal Aerodrome Forecast
Issued by NWS

Home | Current Version | Previous Version | Text Only | Print | Product List | Glossary On
Versions: 1 2 3 4 5 6 7 8 9 10 11 12 13 14 15 16 17 18 19 20 21 22 23 24 25 26 27 28 29 30 31 32 33 34
000
FTUS45 KBOU 272329
TAFAPA
TAF
KAPA 272329Z 2800/2824 03006KT P6SM FEW090 FEW150
     FM280200 11007KT P6SM FEW070 SCT150
     FM280400 14008KT P6SM FEW070 SCT150
     FM280600 18008KT P6SM FEW200
     FM281400 23006KT P6SM FEW200
     FM281900 03010KT P6SM SCT090 SCT150
     FM282200 06012KT P6SM VCTS SCT080CB SCT140=

USA.gov is the U.S. government's official web portal to all federal, state and local government web resources and services.